Time;durP1;ratioP1;P1;durP2;ratioP2;P2;SDS_P1;SDS_P2;PMS_P1;PMS_P2;Temp;Humidity;BMP_temperature;BMP_pressure;BME280_temperature;BME280_humidity;BME280_pressure;Samples;Min_cycle;Max_cycle;Signal;HPM_P1;HPM_P2
2022/04/04 00:00:37;;;;;;;6.55;5.00;;;3.70;99.90;;;;;;5005047;28;20046;-82
2022/04/04 00:03:04;;;;;;;7.78;4.88;;;3.70;99.90;;;;;;5006111;28;20064;-82
2022/04/04 00:05:30;;;;;;;9.77;5.05;;;3.70;99.90;;;;;;5006542;28;20136;-81
2022/04/04 00:07:56;;;;;;;7.25;4.60;;;3.70;99.90;;;;;;5005765;28;20057;-81
2022/04/04 00:10:22;;;;;;;6.43;4.50;;;3.70;99.90;;;;;;5006585;28;20050;-82
2022/04/04 00:12:47;;;;;;;9.00;4.82;;;3.70;99.90;;;;;;5003568;28;20042;-82
2022/04/04 00:15:13;;;;;;;7.82;5.10;;;3.70;99.90;;;;;;5006561;28;20046;-82
2022/04/04 00:17:38;;;;;;;7.50;4.95;;;3.70;99.90;;;;;;5006255;28;20208;-82
2022/04/04 00:20:07;;;;;;;8.27;5.00;;;3.70;99.90;;;;;;5004516;28;20397;-82
2022/04/04 00:22:33;;;;;;;7.63;4.57;;;3.60;99.90;;;;;;5012483;28;20049;-82
2022/04/04 00:24:58;;;;;;;6.47;4.68;;;3.60;99.90;;;;;;5014403;28;20117;-82
2022/04/04 00:27:24;;;;;;;8.77;5.10;;;3.60;99.90;;;;;;5011477;28;20049;-82
2022/04/04 00:29:50;;;;;;;8.15;5.22;;;3.60;99.90;;;;;;5007739;28;20065;-82
2022/04/04 00:32:15;;;;;;;8.60;5.25;;;3.60;99.90;;;;;;5002434;28;20603;-81
2022/04/04 00:34:41;;;;;;;7.03;4.63;;;3.60;99.90;;;;;;5005291;28;20048;-81
2022/04/04 00:37:06;;;;;;;6.72;4.70;;;3.60;99.90;;;;;;5008171;28;20042;-82
2022/04/04 00:39:32;;;;;;;8.57;4.68;;;3.60;99.90;;;;;;5009784;28;20042;-82
2022/04/04 00:41:58;;;;;;;7.07;4.50;;;3.60;99.90;;;;;;5006095;28;20073;-82
2022/04/04 00:44:25;;;;;;;8.10;4.70;;;3.60;99.90;;;;;;5011054;28;20049;-82
2022/04/04 00:46:51;;;;;;;6.72;5.00;;;3.50;99.90;;;;;;5019684;28;20137;-82
2022/04/04 00:49:16;;;;;;;6.40;4.47;;;3.50;99.90;;;;;;5007680;28;20129;-82
2022/04/04 00:51:42;;;;;;;7.90;5.05;;;3.60;99.90;;;;;;5009790;28;20053;-82
2022/04/04 00:54:08;;;;;;;8.15;5.13;;;3.50;99.90;;;;;;5007270;28;20083;-82
2022/04/04 00:56:35;;;;;;;7.65;4.95;;;3.60;99.90;;;;;;5008754;28;20083;-82
2022/04/04 00:59:03;;;;;;;9.35;4.80;;;3.50;99.90;;;;;;4996548;28;20045;-82
2022/04/04 01:01:29;;;;;;;8.65;5.20;;;3.50;99.90;;;;;;5006917;28;20048;-82
2022/04/04 01:03:55;;;;;;;8.18;5.25;;;3.60;99.90;;;;;;5014611;28;20049;-82
2022/04/04 01:06:21;;;;;;;8.85;5.30;;;3.60;99.90;;;;;;5008800;28;20074;-81
2022/04/04 01:08:46;;;;;;;6.45;5.10;;;3.60;99.90;;;;;;5008896;28;20046;-82
2022/04/04 01:11:12;;;;;;;7.28;5.32;;;3.50;99.90;;;;;;5007922;28;20049;-82
2022/04/04 01:13:43;;;;;;;9.25;5.47;;;3.60;99.90;;;;;;5008056;28;20360;-82
2022/04/04 01:16:09;;;;;;;9.65;6.30;;;3.60;99.90;;;;;;5010603;28;20046;-81
2022/04/04 01:18:35;;;;;;;9.98;5.47;;;3.60;99.90;;;;;;5008107;28;20046;-81
2022/04/04 01:21:00;;;;;;;10.80;5.97;;;3.60;99.90;;;;;;5010801;28;20044;-82
2022/04/04 01:23:32;;;;;;;10.65;6.28;;;3.60;99.90;;;;;;5008070;28;20066;-82
2022/04/04 01:25:57;;;;;;;9.18;6.25;;;3.60;99.90;;;;;;5018411;28;20056;-82
2022/04/04 01:28:23;;;;;;;9.95;7.03;;;3.60;99.90;;;;;;5006560;28;20087;-82
2022/04/04 01:30:51;;;;;;;11.90;7.80;;;3.70;99.90;;;;;;5002297;28;20134;-81
2022/04/04 01:33:17;;;;;;;10.23;8.43;;;3.70;99.90;;;;;;5008782;28;20111;-82
2022/04/04 01:35:43;;;;;;;10.10;8.50;;;3.70;99.90;;;;;;5009001;28;20045;-82
2022/04/04 01:38:09;;;;;;;12.25;9.10;;;3.70;99.90;;;;;;5012563;28;20404;-82
2022/04/04 01:40:35;;;;;;;11.45;8.98;;;3.70;99.90;;;;;;5009924;28;20444;-82
2022/04/04 01:43:00;;;;;;;12.32;9.57;;;3.70;99.90;;;;;;5014335;28;20487;-82
2022/04/04 01:48:10;;;;;;;12.10;9.27;;;3.80;99.90;;;;;;5006144;28;20376;-82
2022/04/04 01:50:37;;;;;;;11.73;9.68;;;3.70;99.90;;;;;;5016901;28;20066;-81
2022/04/04 01:55:48;;;;;;;13.25;10.13;;;3.80;99.90;;;;;;5015249;28;20061;-82
2022/04/04 01:58:14;;;;;;;12.82;10.05;;;3.80;99.90;;;;;;5006786;28;20531;-81
2022/04/04 02:00:40;;;;;;;12.30;9.98;;;3.80;99.90;;;;;;5012508;28;20052;-80
2022/04/04 02:03:06;;;;;;;12.63;9.20;;;3.80;99.90;;;;;;5006641;28;20042;-81
2022/04/04 02:05:31;;;;;;;12.38;9.30;;;3.90;99.90;;;;;;5003813;28;20046;-81
2022/04/04 02:07:58;;;;;;;11.85;8.88;;;3.80;99.90;;;;;;5006685;28;20124;-81
2022/04/04 02:10:24;;;;;;;10.75;8.23;;;3.90;99.90;;;;;;5010678;28;20038;-80
2022/04/04 02:12:50;;;;;;;11.23;8.88;;;3.90;99.90;;;;;;5009449;28;20502;-80
2022/04/04 02:15:15;;;;;;;10.68;8.60;;;3.80;99.90;;;;;;5015261;28;20544;-80
2022/04/04 02:17:41;;;;;;;11.45;8.85;;;3.80;99.90;;;;;;5024983;28;20129;-81
2022/04/04 02:20:08;;;;;;;12.65;9.40;;;3.80;99.90;;;;;;5005915;28;20141;-81
2022/04/04 02:22:34;;;;;;;11.80;9.82;;;3.90;99.90;;;;;;5017119;28;20046;-81
2022/04/04 02:25:00;;;;;;;12.00;9.98;;;3.90;99.90;;;;;;5017105;28;20072;-81
2022/04/04 02:27:26;;;;;;;11.40;9.75;;;3.90;99.90;;;;;;5012060;28;20042;-81
2022/04/04 02:29:52;;;;;;;12.75;10.27;;;3.90;99.90;;;;;;5015150;28;20046;-81
2022/04/04 02:32:19;;;;;;;13.27;10.40;;;3.90;99.90;;;;;;5007882;28;20089;-80
2022/04/04 02:34:45;;;;;;;12.73;10.17;;;3.90;99.90;;;;;;5007930;28;20045;-80
2022/04/04 02:37:10;;;;;;;14.25;10.35;;;3.90;99.90;;;;;;5007949;28;20319;-83
2022/04/04 02:39:36;;;;;;;14.80;11.02;;;3.90;99.90;;;;;;5007932;28;20136;-81
2022/04/04 02:42:02;;;;;;;13.95;11.38;;;3.90;99.90;;;;;;5010733;28;20041;-81
2022/04/04 02:44:30;;;;;;;16.63;11.52;;;3.90;99.90;;;;;;5018335;28;20053;-81
2022/04/04 02:46:56;;;;;;;14.65;10.40;;;3.90;99.90;;;;;;5008896;28;20056;-81
2022/04/04 02:49:23;;;;;;;15.10;11.10;;;3.90;99.90;;;;;;5008869;28;20041;-81
2022/04/04 02:51:49;;;;;;;14.60;10.55;;;3.90;99.90;;;;;;5007478;28;20046;-81
2022/04/04 02:54:14;;;;;;;14.70;10.75;;;3.90;99.90;;;;;;5007342;28;20052;-81
2022/04/04 02:56:41;;;;;;;16.55;11.77;;;3.90;99.90;;;;;;5008456;28;20048;-81
2022/04/04 02:59:09;;;;;;;14.77;12.27;;;3.90;99.90;;;;;;5009574;28;20756;-82
2022/04/04 03:01:35;;;;;;;17.40;12.52;;;3.90;99.90;;;;;;5016334;28;20044;-82
2022/04/04 03:04:02;;;;;;;15.52;12.35;;;3.90;99.90;;;;;;5011755;28;20038;-82
2022/04/04 03:06:28;;;;;;;15.97;12.90;;;4.00;99.90;;;;;;5006116;28;20052;-82
2022/04/04 03:08:54;;;;;;;16.73;12.93;;;3.90;99.90;;;;;;5006436;28;20041;-82
2022/04/04 03:11:20;;;;;;;16.25;12.95;;;4.00;99.90;;;;;;5006319;28;20452;-82
2022/04/04 03:13:46;;;;;;;16.73;13.02;;;3.90;99.90;;;;;;5006176;28;20124;-82
2022/04/04 03:16:12;;;;;;;17.50;13.60;;;4.00;99.90;;;;;;5004726;28;20605;-81
2022/04/04 03:18:38;;;;;;;16.92;13.43;;;4.00;99.90;;;;;;5007596;28;20117;-82
2022/04/04 03:21:04;;;;;;;18.02;13.57;;;4.00;99.90;;;;;;5005788;28;20049;-82
2022/04/04 03:23:31;;;;;;;18.38;14.32;;;4.00;99.90;;;;;;5013901;28;20042;-82
2022/04/04 03:25:57;;;;;;;20.20;15.00;;;4.00;99.90;;;;;;5007305;28;20431;-82
2022/04/04 03:28:22;;;;;;;18.67;14.32;;;4.00;99.90;;;;;;5007834;28;20038;-82
2022/04/04 03:30:48;;;;;;;19.15;14.80;;;4.00;99.90;;;;;;5005673;28;20042;-82
2022/04/04 03:33:15;;;;;;;17.92;14.30;;;4.10;99.90;;;;;;5005013;28;20095;-82
2022/04/04 03:35:41;;;;;;;17.90;15.40;;;4.10;99.90;;;;;;5015928;28;20049;-82
2022/04/04 03:38:10;;;;;;;19.48;15.10;;;4.10;99.90;;;;;;5012746;28;20480;-82
2022/04/04 03:40:37;;;;;;;17.83;14.15;;;4.10;99.90;;;;;;5006543;28;20069;-82
2022/04/04 03:43:03;;;;;;;18.80;15.48;;;4.10;99.90;;;;;;5008381;28;20405;-82
2022/04/04 03:45:30;;;;;;;19.23;14.73;;;4.10;99.90;;;;;;5005445;28;20054;-82
2022/04/04 03:47:57;;;;;;;18.77;14.38;;;4.10;99.90;;;;;;5010079;28;20050;-82
2022/04/04 03:50:24;;;;;;;19.50;15.45;;;4.10;99.90;;;;;;5003871;28;20086;-82
2022/04/04 03:52:52;;;;;;;20.23;14.90;;;4.10;99.90;;;;;;5006313;28;20068;-81
2022/04/04 03:55:22;;;;;;;18.30;14.43;;;4.20;99.90;;;;;;4993308;28;20513;-82
2022/04/04 03:57:48;;;;;;;17.67;14.73;;;4.20;99.90;;;;;;5005812;28;20045;-82
2022/04/04 04:00:15;;;;;;;18.90;14.82;;;4.20;99.90;;;;;;5014011;28;20041;-83
2022/04/04 04:02:41;;;;;;;17.37;14.90;;;4.20;99.90;;;;;;5004704;28;20046;-82
2022/04/04 04:05:07;;;;;;;18.30;14.20;;;4.20;99.90;;;;;;5004099;28;20361;-83
2022/04/04 04:07:33;;;;;;;19.65;15.05;;;4.20;99.90;;;;;;5013435;28;20041;-82
2022/04/04 04:09:58;;;;;;;18.95;15.45;;;4.20;99.90;;;;;;5004925;28;20086;-82
2022/04/04 04:12:24;;;;;;;20.83;15.70;;;4.20;99.90;;;;;;5012659;28;20084;-82
2022/04/04 04:14:52;;;;;;;17.65;14.45;;;4.20;99.90;;;;;;5005450;28;20056;-82
2022/04/04 04:17:22;;;;;;;18.27;15.50;;;4.30;99.90;;;;;;5006616;28;20046;-82
2022/04/04 04:22:32;;;;;;;17.23;14.77;;;4.20;99.90;;;;;;5017033;28;20070;-83
2022/04/04 04:24:59;;;;;;;20.60;15.45;;;4.30;99.90;;;;;;5006901;28;20074;-82
2022/04/04 04:27:25;;;;;;;18.42;14.50;;;4.20;99.90;;;;;;5004805;28;20086;-83
2022/04/04 04:29:51;;;;;;;18.20;15.55;;;4.20;99.90;;;;;;5005496;28;20041;-83
2022/04/04 04:32:17;;;;;;;17.83;14.98;;;4.30;99.90;;;;;;5003225;28;20129;-82
2022/04/04 04:34:48;;;;;;;19.88;15.07;;;4.30;99.90;;;;;;5004997;28;20543;-82
2022/04/04 04:37:15;;;;;;;18.35;14.52;;;4.20;99.90;;;;;;5004314;28;20041;-82
2022/04/04 04:39:41;;;;;;;17.52;14.90;;;4.20;99.90;;;;;;5001480;28;20113;-82
2022/04/04 04:42:07;;;;;;;16.95;14.20;;;4.30;99.90;;;;;;4993306;28;20545;-82
2022/04/04 04:44:33;;;;;;;17.95;14.95;;;4.30;99.90;;;;;;5005824;28;20053;-82
2022/04/04 04:47:02;;;;;;;18.73;15.45;;;4.30;99.90;;;;;;5017273;28;20050;-82
2022/04/04 04:49:28;;;;;;;17.88;15.13;;;4.30;99.90;;;;;;5014541;28;20042;-83
2022/04/04 04:51:54;;;;;;;17.80;15.80;;;4.30;99.90;;;;;;5003611;28;20538;-82
2022/04/04 04:54:20;;;;;;;17.95;15.05;;;4.30;99.90;;;;;;5003990;28;20042;-82
2022/04/04 04:56:46;;;;;;;18.45;16.50;;;4.30;99.90;;;;;;5006181;28;20167;-81
2022/04/04 04:59:13;;;;;;;18.73;15.43;;;4.30;99.90;;;;;;5003157;28;20054;-82
2022/04/04 05:01:39;;;;;;;19.23;15.00;;;4.30;99.90;;;;;;5003384;28;20495;-83
2022/04/04 05:04:04;;;;;;;19.80;15.85;;;4.30;99.90;;;;;;5003680;28;20042;-83
2022/04/04 05:06:31;;;;;;;18.30;16.23;;;4.30;99.90;;;;;;5004672;28;20393;-83
2022/04/04 05:08:59;;;;;;;19.35;15.45;;;4.30;99.90;;;;;;5004665;28;20523;-83
2022/04/04 05:11:25;;;;;;;19.90;16.73;;;4.30;99.90;;;;;;5004086;28;20050;-83
2022/04/04 05:13:51;;;;;;;18.67;16.65;;;4.30;99.90;;;;;;5025164;28;20493;-83
2022/04/04 05:16:17;;;;;;;19.50;16.42;;;4.30;99.90;;;;;;5009398;28;20045;-83
2022/04/04 05:18:44;;;;;;;21.73;16.17;;;4.30;99.90;;;;;;5012805;28;20258;-83
2022/04/04 05:21:11;;;;;;;21.43;17.57;;;4.20;99.90;;;;;;5004082;28;20073;-80
2022/04/04 05:23:39;;;;;;;20.83;16.98;;;4.30;99.90;;;;;;5008934;28;20042;-80
2022/04/04 05:26:05;;;;;;;19.70;16.98;;;4.20;99.90;;;;;;5008177;28;20556;-80
2022/04/04 05:28:32;;;;;;;19.35;17.30;;;4.20;99.90;;;;;;5014644;28;20125;-80
2022/04/04 05:31:04;;;;;;;18.98;16.98;;;4.30;99.90;;;;;;5004039;28;20300;-80
2022/04/04 05:33:29;;;;;;;20.25;16.42;;;4.30;99.90;;;;;;5007623;28;20046;-80
2022/04/04 05:35:55;;;;;;;21.05;17.42;;;4.30;99.90;;;;;;5008932;28;20053;-80
2022/04/04 05:38:20;;;;;;;19.90;16.98;;;4.30;99.90;;;;;;5021794;28;20361;-80
2022/04/04 05:40:46;;;;;;;19.27;16.70;;;4.30;99.90;;;;;;5020938;28;20041;-80
2022/04/04 05:43:12;;;;;;;18.70;16.35;;;4.30;99.90;;;;;;5010972;28;20485;-80
2022/04/04 05:45:39;;;;;;;19.20;15.98;;;4.30;99.90;;;;;;5007319;28;20062;-80
2022/04/04 05:48:05;;;;;;;19.83;15.63;;;4.30;99.90;;;;;;5012009;28;20092;-80
2022/04/04 05:50:31;;;;;;;17.50;14.77;;;4.30;99.90;;;;;;5013963;28;20061;-80
2022/04/04 05:52:57;;;;;;;18.25;15.13;;;4.30;99.90;;;;;;5006621;28;20459;-79
2022/04/04 05:55:22;;;;;;;19.13;15.90;;;4.30;99.90;;;;;;5010188;28;20117;-80
2022/04/04 05:57:48;;;;;;;17.25;14.05;;;4.40;99.90;;;;;;5108743;27;20049;-79
2022/04/04 06:00:14;;;;;;;18.92;17.08;;;4.40;99.90;;;;;;5004798;28;20125;-80
2022/04/04 06:02:46;;;;;;;18.95;15.07;;;4.40;99.90;;;;;;5002820;28;20042;-80
2022/04/04 06:05:12;;;;;;;17.52;15.65;;;4.40;99.90;;;;;;5006709;28;20102;-80
2022/04/04 06:07:39;;;;;;;18.38;14.60;;;4.40;99.90;;;;;;5014628;28;20045;-79
2022/04/04 06:10:08;;;;;;;17.90;15.55;;;4.50;99.90;;;;;;4999927;28;20039;-80
2022/04/04 06:12:36;;;;;;;18.13;15.38;;;4.50;99.90;;;;;;5008614;28;20049;-79
2022/04/04 06:15:02;;;;;;;19.52;16.15;;;4.50;99.90;;;;;;5009568;28;20080;-79
2022/04/04 06:17:31;;;;;;;18.58;14.20;;;4.50;99.90;;;;;;5007981;28;20046;-81
2022/04/04 06:19:56;;;;;;;16.77;14.02;;;4.50;99.90;;;;;;5010671;28;20049;-82
2022/04/04 06:22:22;;;;;;;18.25;15.93;;;4.50;99.90;;;;;;5007670;28;20049;-81
2022/04/04 06:24:49;;;;;;;17.90;14.80;;;4.70;99.90;;;;;;5005344;28;20034;-81
2022/04/04 06:27:15;;;;;;;18.80;16.90;;;4.60;99.90;;;;;;5023222;28;20144;-81
2022/04/04 06:29:42;;;;;;;17.05;14.75;;;4.70;99.90;;;;;;5020568;28;20054;-82
2022/04/04 06:32:09;;;;;;;17.67;15.70;;;4.70;99.90;;;;;;5005009;28;20038;-81
2022/04/04 06:34:34;;;;;;;15.95;14.27;;;4.70;99.90;;;;;;5004823;28;20508;-81
2022/04/04 06:37:00;;;;;;;17.85;14.48;;;4.80;99.90;;;;;;5006307;28;20030;-81
2022/04/04 06:39:26;;;;;;;16.13;14.43;;;4.80;99.90;;;;;;5005128;28;20050;-82
2022/04/04 06:41:51;;;;;;;17.30;14.18;;;4.90;99.90;;;;;;5010721;28;20046;-83
2022/04/04 06:44:17;;;;;;;15.52;12.98;;;4.90;99.90;;;;;;5014981;28;20061;-82
2022/04/04 06:46:43;;;;;;;16.20;13.77;;;4.90;99.90;;;;;;5006764;28;20058;-82
2022/04/04 06:49:08;;;;;;;17.80;13.38;;;4.90;99.90;;;;;;5003867;28;20392;-82
2022/04/04 06:51:35;;;;;;;15.27;12.82;;;5.00;99.90;;;;;;5005051;28;20450;-83
2022/04/04 06:54:03;;;;;;;15.35;12.38;;;5.00;99.90;;;;;;5003264;28;20128;-82
2022/04/04 06:56:29;;;;;;;15.00;13.40;;;5.00;99.90;;;;;;5007956;28;20042;-82
2022/04/04 06:58:55;;;;;;;15.32;13.32;;;5.10;99.90;;;;;;5008273;28;20042;-82
2022/04/04 07:01:21;;;;;;;15.88;12.70;;;5.10;99.90;;;;;;5007185;28;20046;-83
2022/04/04 07:03:46;;;;;;;15.75;13.25;;;5.10;99.90;;;;;;5008433;28;20110;-83
2022/04/04 07:06:12;;;;;;;15.88;12.45;;;5.20;99.90;;;;;;5005999;28;20068;-82
2022/04/04 07:08:38;;;;;;;14.57;12.25;;;5.20;99.90;;;;;;5022330;28;20061;-82
2022/04/04 07:11:05;;;;;;;14.75;13.13;;;5.30;99.90;;;;;;5021135;28;20052;-83
2022/04/04 07:13:32;;;;;;;18.02;13.13;;;5.40;99.90;;;;;;5016307;28;20046;-82
2022/04/04 07:15:58;;;;;;;17.98;12.98;;;5.30;99.90;;;;;;5012381;28;20090;-82
2022/04/04 07:18:24;;;;;;;16.48;14.45;;;5.40;99.90;;;;;;5008163;28;20042;-82
2022/04/04 07:20:49;;;;;;;20.45;17.33;;;5.40;99.90;;;;;;5006057;28;20616;-82
2022/04/04 07:23:16;;;;;;;40.75;32.80;;;5.50;99.90;;;;;;5007049;28;20074;-82
2022/04/04 07:25:41;;;;;;;18.97;15.10;;;5.40;99.90;;;;;;5005669;28;20153;-82
2022/04/04 07:28:08;;;;;;;26.63;22.08;;;5.50;99.90;;;;;;5003021;28;20509;-83
2022/04/04 07:30:34;;;;;;;20.98;15.50;;;5.50;99.90;;;;;;5005546;28;20060;-82
2022/04/04 07:33:01;;;;;;;27.75;24.70;;;5.50;99.90;;;;;;5005239;28;20073;-82
2022/04/04 07:35:27;;;;;;;19.08;16.95;;;5.50;99.90;;;;;;5009594;28;20042;-83
2022/04/04 07:37:53;;;;;;;19.67;17.65;;;5.50;99.90;;;;;;5005091;28;20429;-82
2022/04/04 07:40:20;;;;;;;29.45;25.30;;;5.50;99.90;;;;;;5004873;28;20545;-82
2022/04/04 07:42:46;;;;;;;21.17;16.63;;;5.50;99.90;;;;;;5006474;28;20049;-79
2022/04/04 07:45:14;;;;;;;30.48;25.50;;;5.50;99.90;;;;;;5008056;28;20297;-75
2022/04/04 07:47:40;;;;;;;21.13;16.35;;;5.50;99.90;;;;;;5005061;28;20069;-82
2022/04/04 07:50:08;;;;;;;21.63;18.77;;;5.50;99.90;;;;;;5000126;28;20042;-80
2022/04/04 07:52:34;;;;;;;63.60;56.65;;;5.50;99.90;;;;;;5005878;28;20092;-81
2022/04/04 07:54:59;;;;;;;14.25;12.77;;;5.50;99.90;;;;;;5027707;28;20462;-80
2022/04/04 07:57:25;;;;;;;15.02;13.20;;;5.50;99.90;;;;;;5005574;28;20045;-78
2022/04/04 07:59:51;;;;;;;18.13;16.27;;;5.60;99.90;;;;;;5108019;27;20038;-80
2022/04/04 08:02:18;;;;;;;16.48;14.77;;;5.60;99.90;;;;;;5006573;28;20046;-79
2022/04/04 08:04:43;;;;;;;16.65;13.80;;;5.60;99.90;;;;;;5004725;28;20046;-79
2022/04/04 08:07:09;;;;;;;19.23;16.92;;;5.60;99.90;;;;;;5005833;28;20045;-83
2022/04/04 08:09:35;;;;;;;17.77;13.93;;;5.70;99.90;;;;;;5011720;28;20049;-78
2022/04/04 08:12:00;;;;;;;18.15;16.35;;;5.70;99.90;;;;;;5004914;28;20447;-82
2022/04/04 08:14:26;;;;;;;15.35;13.75;;;5.70;99.90;;;;;;5005026;28;20121;-80
2022/04/04 08:16:52;;;;;;;17.15;15.15;;;5.70;99.90;;;;;;5004270;28;20391;-83
2022/04/04 08:19:18;;;;;;;16.35;14.75;;;5.70;99.90;;;;;;5006164;28;20456;-83
2022/04/04 08:21:44;;;;;;;16.23;14.52;;;5.70;99.90;;;;;;5016302;28;20258;-82
2022/04/04 08:24:14;;;;;;;16.83;15.25;;;5.70;99.90;;;;;;5063994;28;20042;-83
2022/04/04 08:26:40;;;;;;;18.20;16.30;;;5.80;99.90;;;;;;5004458;28;20413;-81
2022/04/04 08:29:08;;;;;;;17.85;16.00;;;5.70;99.90;;;;;;5015476;28;20072;-82
2022/04/04 08:31:34;;;;;;;18.20;16.30;;;5.80;99.90;;;;;;5006218;28;20050;-82
2022/04/04 08:34:00;;;;;;;18.48;15.80;;;5.70;99.90;;;;;;5004964;28;20550;-84
2022/04/04 08:36:26;;;;;;;18.77;16.83;;;5.70;99.90;;;;;;5005096;28;20053;-84
2022/04/04 08:38:51;;;;;;;18.20;16.40;;;5.70;99.90;;;;;;5001789;28;20073;-84
2022/04/04 08:41:18;;;;;;;17.48;15.75;;;5.80;99.90;;;;;;5002477;28;20075;-83
2022/04/04 08:43:44;;;;;;;20.75;17.25;;;5.80;99.90;;;;;;5012843;28;20462;-81
2022/04/04 08:46:10;;;;;;;18.42;16.63;;;5.70;99.90;;;;;;5005090;28;20053;-80
2022/04/04 08:48:37;;;;;;;19.98;17.15;;;5.70;99.90;;;;;;5007917;28;20124;-81
2022/04/04 08:51:04;;;;;;;19.02;16.98;;;5.70;99.90;;;;;;5006079;28;20057;-82
2022/04/04 08:53:30;;;;;;;20.00;17.10;;;5.70;99.90;;;;;;5008575;28;20050;-85
2022/04/04 08:55:57;;;;;;;18.52;16.67;;;5.70;99.90;;;;;;5019821;28;20500;-84
2022/04/04 08:58:24;;;;;;;20.17;16.17;;;5.70;99.90;;;;;;5111553;27;20042;-84
2022/04/04 09:00:50;;;;;;;17.25;15.55;;;5.70;99.90;;;;;;5025881;28;20050;-84
2022/04/04 09:03:23;;;;;;;18.52;16.60;;;5.70;99.90;;;;;;5007979;28;20477;-82
2022/04/04 09:05:54;;;;;;;20.38;18.27;;;5.70;99.90;;;;;;5008042;28;20042;-83
2022/04/04 09:08:20;;;;;;;21.85;17.75;;;5.70;99.90;;;;;;5009261;28;20089;-81
2022/04/04 09:10:47;;;;;;;21.40;18.95;;;5.60;99.90;;;;;;5011555;28;20473;-82
2022/04/04 09:13:19;;;;;;;21.05;18.58;;;5.60;99.90;;;;;;5015962;28;20087;-78
2022/04/04 09:16:05;;;;;;;19.90;17.60;;;5.70;99.90;;;;;;5008237;28;20053;-77
2022/04/04 09:18:37;;;;;;;20.00;18.15;;;5.60;99.90;;;;;;5008564;28;20056;-79
2022/04/04 09:21:28;;;;;;;21.77;19.48;;;5.60;99.90;;;;;;5003570;28;20675;-80
2022/04/04 09:23:56;;;;;;;19.80;17.17;;;5.60;99.90;;;;;;5008962;28;20050;-78
2022/04/04 09:26:32;;;;;;;21.67;19.38;;;5.60;99.90;;;;;;5008047;28;20102;-83
2022/04/04 09:29:00;;;;;;;20.17;18.08;;;5.60;99.90;;;;;;5108077;27;20124;-78
2022/04/04 09:31:26;;;;;;;19.40;17.50;;;5.60;99.90;;;;;;4995146;28;20083;-82
2022/04/04 09:33:52;;;;;;;20.35;18.40;;;5.60;99.90;;;;;;5006503;28;20037;-82
2022/04/04 09:36:17;;;;;;;18.83;17.13;;;5.70;99.90;;;;;;5008588;28;20083;-82
2022/04/04 09:39:08;;;;;;;18.00;16.17;;;5.70;99.90;;;;;;5007796;28;20045;-76
2022/04/04 09:41:33;;;;;;;16.67;15.07;;;5.70;99.90;;;;;;5006673;28;20056;-77
2022/04/04 09:44:04;;;;;;;18.02;16.20;;;5.70;99.90;;;;;;5007412;28;20041;-78
2022/04/04 09:46:38;;;;;;;16.30;14.70;;;5.80;99.90;;;;;;5008164;28;20536;-79
2022/04/04 09:49:04;;;;;;;16.13;14.48;;;5.80;99.90;;;;;;5002946;28;20489;-83
2022/04/04 09:51:41;;;;;;;14.45;12.98;;;5.80;99.90;;;;;;5008709;28;20038;-85
2022/04/04 09:54:09;;;;;;;15.10;13.70;;;5.80;99.90;;;;;;5008044;28;20515;-76
2022/04/04 09:56:35;;;;;;;14.20;12.65;;;5.80;99.90;;;;;;5008611;28;20042;-78
2022/04/04 09:59:02;;;;;;;12.55;10.60;;;5.90;99.90;;;;;;5025201;28;20065;-77
2022/04/04 10:01:31;;;;;;;12.80;11.70;;;5.80;99.90;;;;;;5008765;28;20057;-76
2022/04/04 10:03:57;;;;;;;12.90;11.70;;;5.80;99.90;;;;;;5020489;28;20176;-77
2022/04/04 10:06:28;;;;;;;13.15;11.85;;;5.80;99.90;;;;;;5001337;28;20429;-79
2022/04/04 10:09:00;;;;;;;13.90;12.60;;;5.80;99.90;;;;;;5005543;28;20093;-78
2022/04/04 10:11:27;;;;;;;12.65;11.35;;;5.80;99.90;;;;;;5008405;28;20109;-81
2022/04/04 10:13:54;;;;;;;13.70;12.30;;;5.80;99.90;;;;;;5006540;28;20046;-78
2022/04/04 10:16:23;;;;;;;13.18;11.95;;;5.80;99.90;;;;;;5007576;28;20042;-77
2022/04/04 10:18:51;;;;;;;12.40;11.10;;;5.80;99.90;;;;;;5005445;28;20077;-77
2022/04/04 10:21:18;;;;;;;12.00;10.65;;;5.80;99.90;;;;;;5007504;28;20077;-76
2022/04/04 10:23:46;;;;;;;13.25;11.95;;;5.80;99.90;;;;;;5005790;28;20049;-78
2022/04/04 10:26:14;;;;;;;11.85;10.63;;;5.80;99.90;;;;;;5006888;28;20038;-79
2022/04/04 10:28:41;;;;;;;;;;;5.90;99.90;;;;;;5008610;28;20138;-77
2022/04/04 10:31:11;;;;;;;10.38;9.00;;;5.80;99.90;;;;;;5006563;28;19924;-79
2022/04/04 10:33:37;;;;;;;9.80;8.90;;;5.90;99.90;;;;;;5005622;28;20050;-76
2022/04/04 10:36:08;;;;;;;9.60;8.65;;;5.90;99.90;;;;;;5004088;28;20412;-76
2022/04/04 10:38:39;;;;;;;8.52;7.70;;;5.90;99.90;;;;;;5009117;28;20097;-78
2022/04/04 10:41:08;;;;;;;9.70;8.32;;;5.90;99.90;;;;;;5006214;28;20049;-77
2022/04/04 10:43:39;;;;;;;7.53;6.68;;;5.90;99.90;;;;;;5011483;28;20080;-77
2022/04/04 10:46:17;;;;;;;10.52;9.52;;;5.90;99.90;;;;;;5002898;28;20053;-77
2022/04/04 10:48:47;;;;;;;11.05;9.93;;;5.90;99.90;;;;;;5005735;28;20112;-75
2022/04/04 10:51:20;;;;;;;10.20;9.15;;;5.90;99.90;;;;;;5010070;28;20081;-77
2022/04/04 10:53:57;;;;;;;10.45;9.43;;;6.00;99.90;;;;;;5005429;28;20098;-75
2022/04/04 10:56:31;;;;;;;10.88;9.77;;;6.00;99.90;;;;;;4993220;28;20085;-74
2022/04/04 10:59:15;;;;;;;9.68;8.68;;;6.00;99.90;;;;;;5000679;28;20046;-73
2022/04/04 11:02:01;;;;;;;9.68;8.70;;;6.00;99.90;;;;;;5006672;28;20106;-76
2022/04/04 11:04:28;;;;;;;14.83;12.80;;;6.00;99.90;;;;;;5005670;28;20117;-78
2022/04/04 11:10:08;;;;;;;10.20;8.40;;;6.00;99.90;;;;;;5006299;28;20060;-82
2022/04/04 11:13:05;;;;;;;9.88;8.88;;;6.00;99.90;;;;;;5005446;28;20038;-78
2022/04/04 11:15:53;;;;;;;9.98;8.27;;;6.10;99.90;;;;;;5007889;28;20042;-76
2022/04/04 11:18:20;;;;;;;10.60;9.07;;;6.10;99.90;;;;;;5004593;28;20062;-76
2022/04/04 11:20:51;;;;;;;10.88;9.77;;;6.10;99.90;;;;;;5003339;28;20061;-77
2022/04/04 11:23:17;;;;;;;9.40;8.43;;;6.10;99.90;;;;;;5010121;28;20053;-74
2022/04/04 11:25:53;;;;;;;9.60;8.65;;;6.20;99.90;;;;;;5004146;28;20137;-76
2022/04/04 11:28:30;;;;;;;10.30;9.40;;;6.10;99.90;;;;;;5005912;28;20067;-74
2022/04/04 11:31:04;;;;;;;10.45;9.43;;;6.20;99.90;;;;;;5006156;28;20050;-74
2022/04/04 11:33:31;;;;;;;10.90;9.70;;;6.20;99.90;;;;;;5006913;28;20094;-74
2022/04/04 11:35:58;;;;;;;10.90;9.77;;;6.20;99.90;;;;;;5005273;28;20060;-75
2022/04/04 11:38:23;;;;;;;9.55;7.65;;;6.20;99.90;;;;;;5006259;28;20117;-75
2022/04/04 11:40:54;;;;;;;8.68;7.78;;;6.20;99.90;;;;;;5015678;28;20124;-77
2022/04/04 11:43:26;;;;;;;7.88;7.07;;;6.30;99.90;;;;;;5004587;28;20823;-75
2022/04/04 11:45:53;;;;;;;8.20;7.25;;;6.20;99.90;;;;;;5017466;28;20056;-76
2022/04/04 11:48:28;;;;;;;8.85;7.88;;;6.20;99.90;;;;;;5023381;28;20049;-75
2022/04/04 11:50:58;;;;;;;8.20;7.43;;;6.20;99.90;;;;;;5005678;28;20142;-75
2022/04/04 11:53:37;;;;;;;8.85;7.95;;;6.30;99.90;;;;;;5005292;28;20736;-81
2022/04/04 11:56:10;;;;;;;8.20;7.35;;;6.30;99.90;;;;;;5003725;28;20050;-76
2022/04/04 11:58:47;;;;;;;9.18;8.15;;;6.30;99.90;;;;;;5008913;28;20676;-76
2022/04/04 12:01:12;;;;;;;9.40;8.50;;;6.40;99.90;;;;;;5000810;28;20061;-76
2022/04/04 12:03:43;;;;;;;8.27;7.47;;;6.30;99.90;;;;;;5005700;28;20034;-74
2022/04/04 12:06:09;;;;;;;9.95;8.95;;;6.40;99.90;;;;;;5015416;28;20081;-79
2022/04/04 12:08:42;;;;;;;9.38;8.30;;;6.40;99.90;;;;;;5003498;28;20077;-78
2022/04/04 12:11:09;;;;;;;8.75;7.85;;;6.40;99.90;;;;;;5023932;28;20043;-81
2022/04/04 12:13:49;;;;;;;8.55;7.70;;;6.40;99.90;;;;;;5021895;28;20049;-79
2022/04/04 12:16:16;;;;;;;7.60;6.90;;;6.40;99.90;;;;;;5001355;28;20045;-79
2022/04/04 12:18:42;;;;;;;8.63;7.83;;;6.50;99.90;;;;;;5006095;28;20049;-80
2022/04/04 12:21:08;;;;;;;7.60;6.90;;;6.50;99.90;;;;;;5002602;28;20034;-77
2022/04/04 12:26:23;;;;;;;8.15;7.40;;;6.50;99.90;;;;;;5031683;28;20035;-77
2022/04/04 12:28:49;;;;;;;7.95;7.25;;;6.60;99.90;;;;;;5008144;28;20075;-79
2022/04/04 12:31:19;;;;;;;8.48;7.57;;;6.60;99.90;;;;;;5007223;28;20069;-74
2022/04/04 12:33:45;;;;;;;8.02;7.20;;;6.60;99.90;;;;;;5006363;28;20500;-73
2022/04/04 12:36:12;;;;;;;7.18;6.47;;;6.60;99.90;;;;;;5010171;28;20675;-76
2022/04/04 12:38:40;;;;;;;8.35;7.28;;;6.70;99.90;;;;;;5005152;28;20057;-76
2022/04/04 12:41:16;;;;;;;7.72;6.93;;;6.70;99.90;;;;;;5005994;28;20053;-72
2022/04/04 12:43:44;;;;;;;7.68;6.90;;;6.70;99.90;;;;;;5007803;28;20093;-80
2022/04/04 12:46:24;;;;;;;6.32;5.72;;;6.70;99.90;;;;;;5007925;28;20057;-75
2022/04/04 12:48:50;;;;;;;6.88;6.20;;;6.70;99.90;;;;;;5006466;28;20045;-80
2022/04/04 12:51:31;;;;;;;6.75;6.10;;;6.70;99.90;;;;;;5006915;28;20412;-80
2022/04/04 12:54:00;;;;;;;6.93;6.22;;;6.70;99.90;;;;;;5008336;28;20038;-79
2022/04/04 12:56:32;;;;;;;6.90;6.05;;;6.70;99.90;;;;;;5007081;28;20101;-75
2022/04/04 12:59:05;;;;;;;6.43;5.82;;;6.70;99.90;;;;;;5007808;28;20058;-76